Time;durP1;ratioP1;P1;durP2;ratioP2;P2;SDS_P1;SDS_P2;PMS_P1;PMS_P2;Temp;Humidity;BMP_temperature;BMP_pressure;BME280_temperature;BME280_humidity;BME280_pressure;Samples;Min_cycle;Max_cycle;Signal;HPM_P1;HPM_P2
2022/03/25 00:02:22;;;;;;;59.75;18.40;;;;;;;;;;5031074;28;20044;-61
2022/03/25 00:04:48;;;;;;;33.00;17.15;;;;;;;;;;5049961;28;20041;-61
2022/03/25 00:07:15;;;;;;;25.42;14.45;;;;;;;;;;5049193;28;20090;-61
2022/03/25 00:09:41;;;;;;;22.20;15.68;;;;;;;;;;5049818;28;20460;-61
2022/03/25 00:12:07;;;;;;;29.58;13.32;;;;;;;;;;5050213;28;20076;-60
2022/03/25 00:14:34;;;;;;;27.75;15.00;;;;;;;;;;5031476;28;20049;-60
2022/03/25 00:17:00;;;;;;;84.68;18.85;;;;;;;;;;5063853;28;20049;-60
2022/03/25 00:19:27;;;;;;;21.58;15.30;;;;;;;;;;5032148;28;20106;-61
2022/03/25 00:21:53;;;;;;;20.88;14.02;;;;;;;;;;5049079;28;20484;-60
2022/03/25 00:24:19;;;;;;;18.08;13.88;;;;;;;;;;5031865;28;20036;-61
2022/03/25 00:26:46;;;;;;;17.00;12.88;;;;;;;;;;5049158;28;20041;-60
2022/03/25 00:29:13;;;;;;;21.35;14.98;;;;;;;;;;5050017;28;20037;-61
2022/03/25 00:31:39;;;;;;;53.05;16.70;;;;;;;;;;5050594;28;20405;-61
2022/03/25 00:34:05;;;;;;;43.90;16.13;;;;;;;;;;5065330;28;20052;-61
2022/03/25 00:36:32;;;;;;;19.45;14.52;;;;;;;;;;5050355;28;20388;-61
2022/03/25 00:38:58;;;;;;;30.83;16.33;;;;;;;;;;5051396;28;20737;-61
2022/03/25 00:41:24;;;;;;;115.60;19.77;;;;;;;;;;5037428;28;20104;-61
2022/03/25 00:43:50;;;;;;;162.73;19.08;;;;;;;;;;5046800;28;20055;-60
2022/03/25 00:46:16;;;;;;;104.68;18.38;;;;;;;;;;5049756;28;20041;-60
2022/03/25 00:48:43;;;;;;;198.00;23.70;;;;;;;;;;5063474;28;20052;-61
2022/03/25 00:51:10;;;;;;;66.40;19.63;;;;;;;;;;5049545;28;20029;-61
2022/03/25 00:53:36;;;;;;;62.88;17.05;;;;;;;;;;5064819;28;20045;-60
2022/03/25 00:56:03;;;;;;;46.83;18.83;;;;;;;;;;5048339;28;20066;-61
2022/03/25 00:58:30;;;;;;;30.27;18.70;;;;;;;;;;5031028;28;20699;-61
2022/03/25 01:00:56;;;;;;;145.35;20.02;;;;;;;;;;5047958;28;20041;-60
2022/03/25 01:03:22;;;;;;;184.13;24.80;;;;;;;;;;5023933;28;20049;-61
2022/03/25 01:05:49;;;;;;;219.55;26.15;;;;;;;;;;5042722;28;21638;-61
2022/03/25 01:08:15;;;;;;;185.68;24.77;;;;;;;;;;5024041;28;20041;-61
2022/03/25 01:10:43;;;;;;;270.50;28.00;;;;;;;;;;5062860;28;20102;-60
2022/03/25 01:13:10;;;;;;;173.32;24.55;;;;;;;;;;5032230;28;20125;-61
2022/03/25 01:15:36;;;;;;;105.03;21.33;;;;;;;;;;5049206;28;20064;-61
2022/03/25 01:18:03;;;;;;;92.78;19.95;;;;;;;;;;5047987;28;20442;-61
2022/03/25 01:20:30;;;;;;;100.75;20.95;;;;;;;;;;5030708;28;20496;-60
2022/03/25 01:22:56;;;;;;;75.70;20.45;;;;;;;;;;5046528;28;20037;-61
2022/03/25 01:25:22;;;;;;;63.03;19.77;;;;;;;;;;5049891;28;20094;-61
2022/03/25 01:27:48;;;;;;;78.13;18.50;;;;;;;;;;5050201;28;20364;-60
2022/03/25 01:30:15;;;;;;;60.58;17.90;;;;;;;;;;5033349;28;20766;-61
2022/03/25 01:32:41;;;;;;;32.75;17.90;;;;;;;;;;5046116;28;20053;-60
2022/03/25 01:35:09;;;;;;;66.05;19.40;;;;;;;;;;5049867;28;20037;-61
2022/03/25 01:37:35;;;;;;;121.72;22.63;;;;;;;;;;5030024;28;20404;-60
2022/03/25 01:40:01;;;;;;;153.65;24.50;;;;;;;;;;5030613;28;20055;-61
2022/03/25 01:42:31;;;;;;;166.30;25.55;;;;;;;;;;5048496;28;20041;-61
2022/03/25 01:44:57;;;;;;;219.15;27.25;;;;;;;;;;5048069;28;20049;-61
2022/03/25 01:47:28;;;;;;;107.63;24.45;;;;;;;;;;5064455;28;20486;-61
2022/03/25 01:49:54;;;;;;;130.23;24.23;;;;;;;;;;5048607;28;20048;-61
2022/03/25 01:52:20;;;;;;;151.10;24.15;;;;;;;;;;5029762;28;20049;-61
2022/03/25 01:54:47;;;;;;;89.40;22.30;;;;;;;;;;5048609;28;20048;-61
2022/03/25 01:57:13;;;;;;;86.28;23.10;;;;;;;;;;5048195;28;20341;-61
2022/03/25 01:59:39;;;;;;;92.80;23.25;;;;;;;;;;5047986;28;20033;-60
2022/03/25 02:02:06;;;;;;;99.85;22.38;;;;;;;;;;5048663;28;20033;-61
2022/03/25 02:04:32;;;;;;;71.45;21.55;;;;;;;;;;5030820;28;20400;-61
2022/03/25 02:06:58;;;;;;;40.72;21.08;;;;;;;;;;5029795;28;20056;-61
2022/03/25 02:09:26;;;;;;;46.65;21.67;;;;;;;;;;5047831;28;20048;-61
2022/03/25 02:11:53;;;;;;;56.40;19.98;;;;;;;;;;5048310;28;20041;-60
2022/03/25 02:14:20;;;;;;;60.08;21.33;;;;;;;;;;5042418;28;20130;-61
2022/03/25 02:16:47;;;;;;;89.78;21.20;;;;;;;;;;5061370;28;20465;-61
2022/03/25 02:19:18;;;;;;;33.80;19.90;;;;;;;;;;5049083;28;20067;-61
2022/03/25 02:21:45;;;;;;;27.88;19.70;;;;;;;;;;5035057;28;20127;-60
2022/03/25 02:24:12;;;;;;;39.78;20.35;;;;;;;;;;5052714;28;20354;-61
2022/03/25 02:26:39;;;;;;;64.05;21.10;;;;;;;;;;5052820;28;20138;-61
2022/03/25 02:29:05;;;;;;;82.82;21.85;;;;;;;;;;5034503;28;20480;-60
2022/03/25 02:31:32;;;;;;;102.93;22.38;;;;;;;;;;5064569;28;20100;-60
2022/03/25 02:34:00;;;;;;;97.85;24.05;;;;;;;;;;5032346;28;20147;-61
2022/03/25 02:36:26;;;;;;;82.85;22.13;;;;;;;;;;5028814;28;20042;-61
2022/03/25 02:38:52;;;;;;;60.30;20.52;;;;;;;;;;5031286;28;20451;-61
2022/03/25 02:41:19;;;;;;;83.72;20.92;;;;;;;;;;5031172;28;20095;-60
2022/03/25 02:43:45;;;;;;;143.60;21.95;;;;;;;;;;5030826;28;20051;-61
2022/03/25 02:46:11;;;;;;;204.48;25.20;;;;;;;;;;5030185;28;20061;-61
2022/03/25 02:48:37;;;;;;;176.38;23.23;;;;;;;;;;5061891;28;20477;-60
2022/03/25 02:51:03;;;;;;;35.78;18.42;;;;;;;;;;5031479;28;20052;-61
2022/03/25 02:53:31;;;;;;;31.92;18.58;;;;;;;;;;5029453;28;20407;-60
2022/03/25 02:55:57;;;;;;;141.52;20.20;;;;;;;;;;5030693;28;20156;-61
2022/03/25 02:58:23;;;;;;;37.70;17.10;;;;;;;;;;5031717;28;20056;-60
2022/03/25 03:00:49;;;;;;;35.15;17.00;;;;;;;;;;5031528;28;20078;-61
2022/03/25 03:03:15;;;;;;;26.90;17.58;;;;;;;;;;5030806;28;20038;-61
2022/03/25 03:05:42;;;;;;;56.65;17.80;;;;;;;;;;5031370;28;20042;-61
2022/03/25 03:08:09;;;;;;;38.42;17.02;;;;;;;;;;5030605;28;20060;-60
2022/03/25 03:10:35;;;;;;;27.58;17.48;;;;;;;;;;5030592;28;20037;-61
2022/03/25 03:13:02;;;;;;;188.57;21.85;;;;;;;;;;5030971;28;20045;-61
2022/03/25 03:15:29;;;;;;;209.23;21.23;;;;;;;;;;5030797;28;20045;-61
2022/03/25 03:17:55;;;;;;;125.22;19.23;;;;;;;;;;5031174;28;20041;-61
2022/03/25 03:20:24;;;;;;;95.57;19.02;;;;;;;;;;5025382;28;20647;-61
2022/03/25 03:22:50;;;;;;;133.18;19.35;;;;;;;;;;5020615;28;20176;-61
2022/03/25 03:25:16;;;;;;;159.07;19.58;;;;;;;;;;5026592;28;20073;-61
2022/03/25 03:27:43;;;;;;;165.27;22.25;;;;;;;;;;5033376;28;20477;-60
2022/03/25 03:30:11;;;;;;;271.17;25.55;;;;;;;;;;5032002;28;20496;-61
2022/03/25 03:32:37;;;;;;;170.48;20.27;;;;;;;;;;5051933;28;20041;-61
2022/03/25 03:35:04;;;;;;;145.25;21.33;;;;;;;;;;5051086;28;20452;-61
2022/03/25 03:37:30;;;;;;;161.15;24.50;;;;;;;;;;5050608;28;20480;-61
2022/03/25 03:39:56;;;;;;;228.57;26.83;;;;;;;;;;5032452;28;20099;-61
2022/03/25 03:42:23;;;;;;;140.27;24.35;;;;;;;;;;5050660;28;20045;-61
2022/03/25 03:44:49;;;;;;;125.00;22.73;;;;;;;;;;5031848;28;20131;-61
2022/03/25 03:47:15;;;;;;;137.95;22.58;;;;;;;;;;5050524;28;20068;-61
2022/03/25 03:49:41;;;;;;;108.40;22.08;;;;;;;;;;5050532;28;20044;-61
2022/03/25 03:52:08;;;;;;;123.70;22.85;;;;;;;;;;5049451;28;20048;-61
2022/03/25 03:54:36;;;;;;;75.35;22.52;;;;;;;;;;5050382;28;20045;-60
2022/03/25 03:57:03;;;;;;;75.32;22.00;;;;;;;;;;5050517;28;20043;-61
2022/03/25 03:59:29;;;;;;;65.10;20.35;;;;;;;;;;5049634;28;20412;-61
2022/03/25 04:01:55;;;;;;;62.65;20.80;;;;;;;;;;5050153;28;20165;-61
2022/03/25 04:04:21;;;;;;;100.00;22.27;;;;;;;;;;5050286;28;20044;-61
2022/03/25 04:06:48;;;;;;;120.65;22.42;;;;;;;;;;5049296;28;20033;-60
2022/03/25 04:09:14;;;;;;;168.90;24.92;;;;;;;;;;5035047;28;20127;-61
2022/03/25 04:11:40;;;;;;;201.38;24.45;;;;;;;;;;5032384;28;20098;-60
2022/03/25 04:14:06;;;;;;;71.55;21.85;;;;;;;;;;5049662;28;20095;-61
2022/03/25 04:16:32;;;;;;;43.38;22.20;;;;;;;;;;5050144;28;20041;-61
2022/03/25 04:18:58;;;;;;;58.33;23.15;;;;;;;;;;5048680;28;20494;-60
2022/03/25 04:21:25;;;;;;;256.52;29.38;;;;;;;;;;5049627;28;20037;-61
2022/03/25 04:23:51;;;;;;;32.10;23.13;;;;;;;;;;5049626;28;20084;-61
2022/03/25 04:26:17;;;;;;;89.53;23.75;;;;;;;;;;5028220;28;20086;-60
2022/03/25 04:28:43;;;;;;;54.83;22.27;;;;;;;;;;5054230;28;20037;-61
2022/03/25 04:31:09;;;;;;;78.88;23.17;;;;;;;;;;5029358;28;20083;-60
2022/03/25 04:33:37;;;;;;;47.72;24.05;;;;;;;;;;5030287;28;20080;-61
2022/03/25 04:36:03;;;;;;;73.07;24.35;;;;;;;;;;5062646;28;20485;-61
2022/03/25 04:38:29;;;;;;;106.85;24.85;;;;;;;;;;5028932;28;20120;-61
2022/03/25 04:40:56;;;;;;;134.00;23.85;;;;;;;;;;5060482;28;20099;-61
2022/03/25 04:43:23;;;;;;;195.27;25.55;;;;;;;;;;5028183;28;20132;-60
2022/03/25 04:45:49;;;;;;;219.30;24.92;;;;;;;;;;5029718;28;20042;-60
2022/03/25 04:48:15;;;;;;;163.77;25.27;;;;;;;;;;5027494;28;20033;-61
2022/03/25 04:50:43;;;;;;;193.27;26.67;;;;;;;;;;5060965;28;20481;-60
2022/03/25 04:53:10;;;;;;;241.90;29.45;;;;;;;;;;5027411;28;20041;-61
2022/03/25 04:55:36;;;;;;;140.88;24.48;;;;;;;;;;5028801;28;20052;-61
2022/03/25 04:58:02;;;;;;;145.65;23.17;;;;;;;;;;5029331;28;20075;-60
2022/03/25 05:00:28;;;;;;;197.07;25.20;;;;;;;;;;5061206;28;20048;-61
2022/03/25 05:02:55;;;;;;;243.07;27.25;;;;;;;;;;5026961;28;20052;-61
2022/03/25 05:05:21;;;;;;;224.55;28.50;;;;;;;;;;5058672;28;20069;-60
2022/03/25 05:07:50;;;;;;;252.07;31.65;;;;;;;;;;5027773;28;20053;-60
2022/03/25 05:10:16;;;;;;;193.15;27.58;;;;;;;;;;5058564;28;20515;-60
2022/03/25 05:12:43;;;;;;;140.85;25.50;;;;;;;;;;5029007;28;20048;-60
2022/03/25 05:15:10;;;;;;;57.67;21.08;;;;;;;;;;5028321;28;20039;-61
2022/03/25 05:17:44;;;;;;;52.30;19.10;;;;;;;;;;5028415;28;20132;-61
2022/03/25 05:20:10;;;;;;;41.63;19.70;;;;;;;;;;5060532;28;20049;-61
2022/03/25 05:22:36;;;;;;;34.28;19.33;;;;;;;;;;5027924;28;20037;-61
2022/03/25 05:25:06;;;;;;;37.22;19.45;;;;;;;;;;5027851;28;20048;-61
2022/03/25 05:27:32;;;;;;;24.25;16.92;;;;;;;;;;5025752;28;20544;-60
2022/03/25 05:29:59;;;;;;;24.95;16.88;;;;;;;;;;5056505;28;20041;-61
2022/03/25 05:32:25;;;;;;;23.20;17.08;;;;;;;;;;5047346;28;20426;-61
2022/03/25 05:34:51;;;;;;;20.10;15.73;;;;;;;;;;5031848;28;20523;-61
2022/03/25 05:37:17;;;;;;;39.22;17.45;;;;;;;;;;5030277;28;20045;-60
2022/03/25 05:39:45;;;;;;;46.88;18.17;;;;;;;;;;5063777;28;20048;-61
2022/03/25 05:42:11;;;;;;;27.60;18.45;;;;;;;;;;5062177;28;20120;-61
2022/03/25 05:44:37;;;;;;;23.65;17.17;;;;;;;;;;5048744;28;20044;-60
2022/03/25 05:47:03;;;;;;;21.38;17.05;;;;;;;;;;5030806;28;20371;-61
2022/03/25 05:49:30;;;;;;;21.35;16.63;;;;;;;;;;5048159;28;20200;-61
2022/03/25 05:51:56;;;;;;;24.10;16.23;;;;;;;;;;5067374;28;20503;-61
2022/03/25 05:54:22;;;;;;;26.58;16.40;;;;;;;;;;5067669;28;20157;-61
2022/03/25 05:56:48;;;;;;;27.48;16.08;;;;;;;;;;5052516;28;20048;-61
2022/03/25 05:59:15;;;;;;;25.30;17.02;;;;;;;;;;5051578;28;20103;-61
2022/03/25 06:01:42;;;;;;;23.20;16.52;;;;;;;;;;5050636;28;20048;-61
2022/03/25 06:04:08;;;;;;;22.88;15.82;;;;;;;;;;5050680;28;20041;-60
2022/03/25 06:06:34;;;;;;;19.65;14.32;;;;;;;;;;5065364;28;20053;-61
2022/03/25 06:09:01;;;;;;;21.13;15.30;;;;;;;;;;5052735;28;20120;-62
2022/03/25 06:11:27;;;;;;;21.52;15.23;;;;;;;;;;5034065;28;20123;-61
2022/03/25 06:13:53;;;;;;;24.30;16.52;;;;;;;;;;5052713;28;20057;-61
2022/03/25 06:16:19;;;;;;;26.27;16.70;;;;;;;;;;5052372;28;20143;-61
2022/03/25 06:18:46;;;;;;;23.15;15.38;;;;;;;;;;5033611;28;20049;-61
2022/03/25 06:21:12;;;;;;;22.98;16.27;;;;;;;;;;5067973;28;20352;-62
2022/03/25 06:23:38;;;;;;;24.65;15.70;;;;;;;;;;5052518;28;20040;-61
2022/03/25 06:26:05;;;;;;;28.92;19.85;;;;;;;;;;5066786;28;20090;-61
2022/03/25 06:28:31;;;;;;;33.08;20.20;;;;;;;;;;5052461;28;20411;-61
2022/03/25 06:30:58;;;;;;;30.92;19.95;;;;;;;;;;5052082;28;20476;-61
2022/03/25 06:33:24;;;;;;;31.50;20.85;;;;;;;;;;5051186;28;20139;-61
2022/03/25 06:35:51;;;;;;;31.00;20.80;;;;;;;;;;5034550;28;20048;-61
2022/03/25 06:38:18;;;;;;;40.22;23.30;;;;;;;;;;5051665;28;20049;-62
2022/03/25 06:40:44;;;;;;;37.38;24.13;;;;;;;;;;5049249;28;20044;-62
2022/03/25 06:43:11;;;;;;;38.70;24.55;;;;;;;;;;5051289;28;20053;-62
2022/03/25 06:45:37;;;;;;;38.30;24.42;;;;;;;;;;5050905;28;20045;-62
2022/03/25 06:48:03;;;;;;;37.42;24.08;;;;;;;;;;5031777;28;20396;-62
2022/03/25 06:50:30;;;;;;;46.85;26.42;;;;;;;;;;5051097;28;20043;-61
2022/03/25 06:52:57;;;;;;;51.35;27.85;;;;;;;;;;5050563;28;20041;-61
2022/03/25 06:55:24;;;;;;;55.88;30.60;;;;;;;;;;5064179;28;20052;-62
2022/03/25 06:57:51;;;;;;;57.25;32.25;;;;;;;;;;5050468;28;20049;-62
2022/03/25 07:00:18;;;;;;;56.92;30.33;;;;;;;;;;5048178;28;20042;-62
2022/03/25 07:02:45;;;;;;;55.13;30.23;;;;;;;;;;5032023;28;20040;-61
2022/03/25 07:05:12;;;;;;;56.85;32.50;;;;;;;;;;5049016;28;20037;-63
2022/03/25 07:07:39;;;;;;;59.85;33.63;;;;;;;;;;5049821;28;20033;-62
2022/03/25 07:10:05;;;;;;;75.82;39.30;;;;;;;;;;5032598;28;20045;-62
2022/03/25 07:12:32;;;;;;;88.85;44.22;;;;;;;;;;5031838;28;20045;-62
2022/03/25 07:14:58;;;;;;;90.32;46.75;;;;;;;;;;5031322;28;20094;-62
2022/03/25 07:17:24;;;;;;;93.40;48.13;;;;;;;;;;5050491;28;20044;-62
2022/03/25 07:19:50;;;;;;;103.20;50.83;;;;;;;;;;5060454;28;20124;-61
2022/03/25 07:22:17;;;;;;;107.05;51.63;;;;;;;;;;5046089;28;20068;-62
2022/03/25 07:24:43;;;;;;;105.65;50.97;;;;;;;;;;5046755;28;20069;-62
2022/03/25 07:27:10;;;;;;;108.45;51.92;;;;;;;;;;5063265;28;20115;-62
2022/03/25 07:29:36;;;;;;;111.88;52.30;;;;;;;;;;5030588;28;20419;-62
2022/03/25 07:32:04;;;;;;;108.07;52.53;;;;;;;;;;5049257;28;20136;-61
2022/03/25 07:34:31;;;;;;;117.07;53.97;;;;;;;;;;5066957;28;20187;-61
2022/03/25 07:36:58;;;;;;;118.53;56.08;;;;;;;;;;5051136;28;20045;-74
2022/03/25 07:39:24;;;;;;;122.35;55.22;;;;;;;;;;5048202;28;20055;-62
2022/03/25 07:41:50;;;;;;;113.00;56.10;;;;;;;;;;5050002;28;20044;-62
2022/03/25 07:44:16;;;;;;;103.40;55.88;;;;;;;;;;5050832;28;20044;-62
2022/03/25 07:46:43;;;;;;;111.35;54.55;;;;;;;;;;5052211;28;20041;-62
2022/03/25 07:49:09;;;;;;;105.25;53.65;;;;;;;;;;5052647;28;20132;-61
2022/03/25 07:51:35;;;;;;;112.78;55.55;;;;;;;;;;5052031;28;20140;-62
2022/03/25 07:54:01;;;;;;;93.70;52.83;;;;;;;;;;5034596;28;20098;-62
2022/03/25 07:56:28;;;;;;;86.60;48.88;;;;;;;;;;5052413;28;20423;-62
2022/03/25 07:58:54;;;;;;;86.63;48.45;;;;;;;;;;5033904;28;20040;-62
2022/03/25 08:01:21;;;;;;;77.93;45.83;;;;;;;;;;5052691;28;20499;-62
2022/03/25 08:03:47;;;;;;;80.80;46.00;;;;;;;;;;5052129;28;20041;-62
2022/03/25 08:06:13;;;;;;;63.88;38.85;;;;;;;;;;5033833;28;20041;-62
2022/03/25 08:08:39;;;;;;;65.60;36.90;;;;;;;;;;5052443;28;20052;-62
2022/03/25 08:11:06;;;;;;;61.42;36.30;;;;;;;;;;5051154;28;20041;-62
2022/03/25 08:13:33;;;;;;;58.05;35.40;;;;;;;;;;5051852;28;20048;-62
2022/03/25 08:15:59;;;;;;;47.25;29.65;;;;;;;;;;5052175;28;20044;-62
2022/03/25 08:18:25;;;;;;;53.05;31.25;;;;;;;;;;5033505;28;20477;-62
2022/03/25 08:20:53;;;;;;;51.47;31.45;;;;;;;;;;5052105;28;20122;-62
2022/03/25 08:28:53;;;;;;;47.80;27.42;;;;;;;;;;5052003;28;20132;-62
2022/03/25 08:31:19;;;;;;;45.40;24.75;;;;;;;;;;5047655;28;20045;-62
2022/03/25 08:33:46;;;;;;;44.65;25.92;;;;;;;;;;5031564;28;20173;-62
2022/03/25 08:36:12;;;;;;;44.28;25.83;;;;;;;;;;5048060;28;20049;-62
2022/03/25 08:38:38;;;;;;;46.15;26.05;;;;;;;;;;5033701;28;20064;-62
2022/03/25 08:41:04;;;;;;;41.65;26.33;;;;;;;;;;5033154;28;20428;-62
2022/03/25 08:43:31;;;;;;;48.55;25.40;;;;;;;;;;5051607;28;20079;-62
2022/03/25 08:45:57;;;;;;;48.13;27.35;;;;;;;;;;5051575;28;20064;-62
2022/03/25 08:48:23;;;;;;;41.95;27.33;;;;;;;;;;5050824;28;20128;-62
2022/03/25 08:50:50;;;;;;;40.97;24.13;;;;;;;;;;5033859;28;20045;-62
2022/03/25 08:53:17;;;;;;;45.22;25.33;;;;;;;;;;5050819;28;20073;-62
2022/03/25 08:55:43;;;;;;;37.65;24.52;;;;;;;;;;5051623;28;20048;-62
2022/03/25 08:58:10;;;;;;;45.55;26.08;;;;;;;;;;5033411;28;20049;-62
2022/03/25 09:00:36;;;;;;;42.72;23.45;;;;;;;;;;5050534;28;20131;-62
2022/03/25 09:03:02;;;;;;;37.38;22.73;;;;;;;;;;5051699;28;20095;-62
2022/03/25 09:05:28;;;;;;;38.55;23.08;;;;;;;;;;5051579;28;20389;-62
2022/03/25 09:07:55;;;;;;;37.53;20.85;;;;;;;;;;5046578;28;20131;-62
2022/03/25 09:10:21;;;;;;;42.85;24.08;;;;;;;;;;5033546;28;20044;-62
2022/03/25 09:12:48;;;;;;;41.40;24.55;;;;;;;;;;5033177;28;21134;-62
2022/03/25 09:15:15;;;;;;;42.15;23.92;;;;;;;;;;5032357;28;20083;-62
2022/03/25 09:17:41;;;;;;;40.22;22.70;;;;;;;;;;5051261;28;20037;-62
2022/03/25 09:20:08;;;;;;;33.60;19.30;;;;;;;;;;5033422;28;20102;-62
2022/03/25 09:22:35;;;;;;;33.17;20.20;;;;;;;;;;5050448;28;20083;-62
2022/03/25 09:25:01;;;;;;;38.60;22.17;;;;;;;;;;5034338;28;20057;-62
2022/03/25 09:27:27;;;;;;;39.05;18.70;;;;;;;;;;5055351;28;20057;-62
2022/03/25 09:29:54;;;;;;;36.92;20.83;;;;;;;;;;5036231;28;20053;-62
2022/03/25 09:32:20;;;;;;;32.58;18.08;;;;;;;;;;5037073;28;20057;-62
2022/03/25 09:37:31;;;;;;;34.47;18.38;;;;;;;;;;5053391;28;20049;-62
2022/03/25 09:39:57;;;;;;;30.77;17.73;;;;;;;;;;5018017;28;20049;-62
2022/03/25 09:42:23;;;;;;;38.33;20.70;;;;;;;;;;5039698;28;20041;-62
2022/03/25 09:44:49;;;;;;;39.88;18.83;;;;;;;;;;5053156;28;20051;-64
2022/03/25 09:47:17;;;;;;;35.42;19.35;;;;;;;;;;5054347;28;20164;-64
2022/03/25 09:49:44;;;;;;;35.40;17.92;;;;;;;;;;5053697;28;20348;-63
2022/03/25 09:52:10;;;;;;;32.42;18.02;;;;;;;;;;5036283;28;20472;-63
2022/03/25 09:54:36;;;;;;;31.65;17.00;;;;;;;;;;5054104;28;20041;-63
2022/03/25 09:57:03;;;;;;;30.17;15.43;;;;;;;;;;5035750;28;20392;-64
2022/03/25 09:59:30;;;;;;;32.50;15.80;;;;;;;;;;5035921;28;20049;-63
2022/03/25 10:01:56;;;;;;;30.77;15.27;;;;;;;;;;5053031;28;20033;-63
2022/03/25 10:04:40;;;;;;;30.95;16.05;;;;;;;;;;5035108;28;20055;-63
2022/03/25 10:07:16;;;;;;;28.55;15.95;;;;;;;;;;5036918;28;20053;-63
2022/03/25 10:09:43;;;;;;;27.92;15.60;;;;;;;;;;5036587;28;20041;-63
2022/03/25 10:12:29;;;;;;;31.38;16.73;;;;;;;;;;5053823;28;20119;-64
2022/03/25 10:15:11;;;;;;;27.50;16.33;;;;;;;;;;5054406;28;20485;-64
2022/03/25 10:17:50;;;;;;;32.42;16.10;;;;;;;;;;5036214;28;20072;-64
2022/03/25 10:20:16;;;;;;;32.90;16.75;;;;;;;;;;5036534;28;20431;-63
2022/03/25 10:22:57;;;;;;;35.35;18.25;;;;;;;;;;5054393;28;20044;-64
2022/03/25 10:25:39;;;;;;;29.13;17.10;;;;;;;;;;5035669;28;20384;-63
2022/03/25 10:28:06;;;;;;;29.85;17.10;;;;;;;;;;5036131;28;20492;-64
2022/03/25 10:30:37;;;;;;;24.58;15.27;;;;;;;;;;5053839;28;20089;-64
2022/03/25 10:33:12;;;;;;;31.17;16.38;;;;;;;;;;5053410;28;20305;-64
2022/03/25 10:35:58;;;;;;;34.05;16.73;;;;;;;;;;5053682;28;20060;-64
2022/03/25 10:38:24;;;;;;;28.45;16.92;;;;;;;;;;5054026;28;20064;-63
2022/03/25 10:40:55;;;;;;;31.25;16.00;;;;;;;;;;5035145;28;20484;-63
2022/03/25 10:43:22;;;;;;;34.42;17.33;;;;;;;;;;5036212;28;20033;-63
2022/03/25 10:45:48;;;;;;;28.25;16.42;;;;;;;;;;5035302;28;20037;-64
2022/03/25 10:48:22;;;;;;;29.85;16.45;;;;;;;;;;5053803;28;20123;-64
2022/03/25 10:50:56;;;;;;;29.83;15.80;;;;;;;;;;5053726;28;20107;-64
2022/03/25 10:53:23;;;;;;;25.52;15.70;;;;;;;;;;5052713;28;20064;-63
2022/03/25 10:55:56;;;;;;;28.63;16.00;;;;;;;;;;5053949;28;20040;-64
2022/03/25 10:58:22;;;;;;;24.53;14.40;;;;;;;;;;5053913;28;20132;-63
2022/03/25 11:00:49;;;;;;;29.17;15.65;;;;;;;;;;5035048;28;20287;-63
2022/03/25 11:03:16;;;;;;;29.20;14.68;;;;;;;;;;5052029;28;20048;-63
2022/03/25 11:05:42;;;;;;;32.25;15.70;;;;;;;;;;5067213;28;20060;-63
2022/03/25 11:08:09;;;;;;;24.77;14.60;;;;;;;;;;5037042;28;20045;-63
2022/03/25 11:10:35;;;;;;;27.65;14.95;;;;;;;;;;5054126;28;20094;-63
2022/03/25 11:13:03;;;;;;;22.50;13.27;;;;;;;;;;5034405;28;20040;-64
2022/03/25 11:15:30;;;;;;;24.05;13.55;;;;;;;;;;5049011;28;20055;-64
2022/03/25 11:17:57;;;;;;;21.48;12.68;;;;;;;;;;5051913;28;20083;-62
2022/03/25 11:20:25;;;;;;;24.58;14.48;;;;;;;;;;5051559;28;20055;-62
2022/03/25 11:22:56;;;;;;;25.83;15.00;;;;;;;;;;5035231;28;20128;-63
2022/03/25 11:25:23;;;;;;;26.80;14.57;;;;;;;;;;5069203;28;20549;-62
2022/03/25 11:27:53;;;;;;;21.48;14.80;;;;;;;;;;5053171;28;20073;-62
2022/03/25 11:30:20;;;;;;;23.67;15.55;;;;;;;;;;5053564;28;20130;-62
2022/03/25 11:33:04;;;;;;;24.48;16.40;;;;;;;;;;5053668;28;20045;-62
2022/03/25 11:35:32;;;;;;;29.30;18.40;;;;;;;;;;5034263;28;20070;-62
2022/03/25 11:38:12;;;;;;;26.27;19.35;;;;;;;;;;5034035;28;20107;-62
2022/03/25 11:40:42;;;;;;;25.48;19.35;;;;;;;;;;5066768;28;20056;-62
2022/03/25 11:43:16;;;;;;;30.73;20.73;;;;;;;;;;5066538;28;20429;-63
2022/03/25 11:45:42;;;;;;;27.85;22.98;;;;;;;;;;5031389;28;20040;-62
2022/03/25 11:48:09;;;;;;;31.95;24.77;;;;;;;;;;5050632;28;20060;-62
2022/03/25 11:50:37;;;;;;;31.90;24.40;;;;;;;;;;5032933;28;20041;-63
2022/03/25 11:53:11;;;;;;;32.28;22.10;;;;;;;;;;5066642;28;20048;-62
2022/03/25 11:55:53;;;;;;;31.80;23.73;;;;;;;;;;5051657;28;20049;-63
2022/03/25 11:58:20;;;;;;;32.17;22.35;;;;;;;;;;5049101;28;20045;-63
2022/03/25 12:00:48;;;;;;;29.85;21.58;;;;;;;;;;5028566;28;20052;-62
2022/03/25 12:03:15;;;;;;;31.23;23.95;;;;;;;;;;5048190;28;20044;-63
2022/03/25 12:06:01;;;;;;;30.30;23.02;;;;;;;;;;5050264;28;20400;-63
2022/03/25 12:08:28;;;;;;;32.58;24.50;;;;;;;;;;5032910;28;20083;-62
2022/03/25 12:10:55;;;;;;;35.55;25.83;;;;;;;;;;5053755;28;20050;-62
2022/03/25 12:13:22;;;;;;;32.17;22.42;;;;;;;;;;5051345;28;20036;-63
2022/03/25 12:15:52;;;;;;;33.40;24.55;;;;;;;;;;5051116;28;20186;-62
2022/03/25 12:18:37;;;;;;;26.98;20.25;;;;;;;;;;5049970;28;20037;-62
2022/03/25 12:21:03;;;;;;;32.25;22.90;;;;;;;;;;5051083;28;20048;-62
2022/03/25 12:23:30;;;;;;;33.65;24.02;;;;;;;;;;5065836;28;20057;-62
2022/03/25 12:25:56;;;;;;;31.63;23.65;;;;;;;;;;5044451;28;20048;-62
2022/03/25 12:28:24;;;;;;;30.45;23.33;;;;;;;;;;5049085;28;20048;-62
2022/03/25 12:30:51;;;;;;;32.03;22.40;;;;;;;;;;5060658;28;20080;-63
2022/03/25 12:33:19;;;;;;;31.63;23.02;;;;;;;;;;5044824;28;20124;-62
2022/03/25 12:35:45;;;;;;;35.13;25.38;;;;;;;;;;5028724;28;20041;-62
2022/03/25 12:38:22;;;;;;;26.02;20.67;;;;;;;;;;5029118;28;20049;-62
2022/03/25 12:40:49;;;;;;;32.15;22.35;;;;;;;;;;5032569;28;20048;-62
2022/03/25 12:43:15;;;;;;;34.75;23.30;;;;;;;;;;5059454;28;20056;-62
2022/03/25 12:45:45;;;;;;;32.38;23.15;;;;;;;;;;5057185;28;20064;-63
2022/03/25 12:48:16;;;;;;;31.70;21.70;;;;;;;;;;5055653;28;20056;-62
2022/03/25 12:50:43;;;;;;;29.35;21.77;;;;;;;;;;5024981;28;20046;-62
2022/03/25 12:53:09;;;;;;;26.23;20.17;;;;;;;;;;5023986;28;20046;-62
2022/03/25 12:55:36;;;;;;;31.15;23.95;;;;;;;;;;5018202;28;20108;-62
2022/03/25 12:58:03;;;;;;;31.42;22.23;;;;;;;;;;5014458;28;20096;-62
2022/03/25 13:00:32;;;;;;;28.50;20.95;;;;;;;;;;5020270;28;20129;-63
2022/03/25 13:02:58;;;;;;;34.28;27.08;;;;;;;;;;5019438;28;20084;-63
2022/03/25 13:05:25;;;;;;;27.33;19.98;;;;;;;;;;5021334;28;20045;-62
2022/03/25 13:07:54;;;;;;;26.25;18.55;;;;;;;;;;5023867;28;20077;-62
2022/03/25 13:10:21;;;;;;;29.58;18.58;;;;;;;;;;5025075;28;20124;-61
2022/03/25 13:12:52;;;;;;;29.23;18.63;;;;;;;;;;5025673;28;20033;-61
2022/03/25 13:15:18;;;;;;;26.52;18.52;;;;;;;;;;5027842;28;20049;-62
2022/03/25 13:17:46;;;;;;;32.83;20.98;;;;;;;;;;5028139;28;20065;-61
2022/03/25 13:20:15;;;;;;;30.10;20.48;;;;;;;;;;5027934;28;20041;-61
2022/03/25 13:22:55;;;;;;;30.23;20.65;;;;;;;;;;5027701;28;20049;-61
2022/03/25 13:25:26;;;;;;;31.73;22.05;;;;;;;;;;5054130;28;20329;-61
2022/03/25 13:27:53;;;;;;;32.92;22.65;;;;;;;;;;5023962;28;20545;-61
2022/03/25 13:30:22;;;;;;;33.33;24.65;;;;;;;;;;5027992;28;20053;-62
2022/03/25 13:32:56;;;;;;;38.97;23.75;;;;;;;;;;5028169;28;20128;-61
2022/03/25 13:35:22;;;;;;;38.28;26.10;;;;;;;;;;5027957;28;20053;-61
2022/03/25 13:37:57;;;;;;;36.33;23.42;;;;;;;;;;5041738;28;20052;-61
2022/03/25 13:40:34;;;;;;;33.00;22.02;;;;;;;;;;5043054;28;20350;-61
2022/03/25 13:43:01;;;;;;;33.63;24.42;;;;;;;;;;5040392;28;20044;-61
2022/03/25 13:45:28;;;;;;;32.28;23.20;;;;;;;;;;5045928;28;20116;-61
2022/03/25 13:48:04;;;;;;;33.92;23.10;;;;;;;;;;5046578;28;20051;-61
2022/03/25 13:50:31;;;;;;;38.40;23.23;;;;;;;;;;5043193;28;20037;-61
2022/03/25 13:52:59;;;;;;;35.95;22.23;;;;;;;;;;5043663;28;20128;-61
2022/03/25 13:55:31;;;;;;;31.50;20.52;;;;;;;;;;5045217;28;20045;-61
2022/03/25 13:57:58;;;;;;;34.97;19.23;;;;;;;;;;5046074;28;20495;-61
2022/03/25 14:00:32;;;;;;;30.83;20.40;;;;;;;;;;5025778;28;20475;-61
2022/03/25 14:02:59;;;;;;;32.28;17.05;;;;;;;;;;5044490;28;20060;-61
2022/03/25 14:05:25;;;;;;;30.27;17.35;;;;;;;;;;5047708;28;20080;-61
2022/03/25 14:07:53;;;;;;;25.70;14.50;;;;;;;;;;5043609;28;20361;-61
2022/03/25 14:10:19;;;;;;;28.95;15.93;;;;;;;;;;5042907;28;20120;-61
2022/03/25 14:12:54;;;;;;;25.88;15.98;;;;;;;;;;5050423;28;21753;-61
2022/03/25 14:15:24;;;;;;;24.88;17.02;;;;;;;;;;5046645;28;20060;-61
2022/03/25 14:17:52;;;;;;;27.23;18.13;;;;;;;;;;5044136;28;20519;-61
2022/03/25 14:20:19;;;;;;;27.88;18.52;;;;;;;;;;5048423;28;20073;-61
2022/03/25 14:22:47;;;;;;;32.85;21.90;;;;;;;;;;5047155;28;20457;-61
2022/03/25 14:25:14;;;;;;;31.48;22.30;;;;;;;;;;5048835;28;20063;-61